Maumee, Indiana
Current Conditions -  °F | °C
As of 6:35 AM on Thursday 27 Nov 2014 (Local Time) from KGWB Reporting Station
Overcast Overcast  
Wind Chill: 28°   Ceiling: 4100
Heat Index: 28°   Visibility: 10mi
Dew Point: 23°   Wind: 3mph
Humidity: 80%   Direction: 310°NW
Pressure: 30.17"   Gusts: NA
Location:  41.1055°N, 84.8542°W
Report Text: KGWB 271135Z AUTO 31003KT 10SM OVC041 M02/M05 A3017 RMK AO2
Loading
Personal Weather Stations






























Interactive Weather Map New forecast layout! Learn more

10-Day Weather Forecast

Advertisements
Track Severe Weather on mobile